Time;durP1;ratioP1;P1;durP2;ratioP2;P2;SDS_P1;SDS_P2;PMS_P1;PMS_P2;Temp;Humidity;BMP_temperature;BMP_pressure;BME280_temperature;BME280_humidity;BME280_pressure;Samples;Min_cycle;Max_cycle;Signal;HPM_P1;HPM_P2
2021/10/13 00:00:14;;;;;;;8.30;5.30;;;;;;;3.66;100.00;101507.47;684962;28;1105;-50
2021/10/13 00:00:34;;;;;;;7.82;5.20;;;;;;;3.70;100.00;101511.06;685838;28;1069;-54
2021/10/13 00:00:55;;;;;;;8.75;5.28;;;;;;;3.69;100.00;101509.28;684999;28;4846;-54
2021/10/13 00:01:16;;;;;;;7.27;5.00;;;;;;;3.71;100.00;101510.22;685313;28;3540;-52
2021/10/13 00:01:37;;;;;;;7.30;5.00;;;;;;;3.77;100.00;101515.63;686365;28;1326;-52
2021/10/13 00:01:57;;;;;;;7.63;5.27;;;;;;;3.82;100.00;101518.38;683021;28;1486;-51
2021/10/13 00:02:17;;;;;;;7.93;5.00;;;;;;;3.86;100.00;101510.81;684304;28;1144;-54
2021/10/13 00:02:38;;;;;;;7.13;4.90;;;;;;;3.88;100.00;101518.63;683315;28;1061;-53
2021/10/13 00:02:59;;;;;;;7.82;5.03;;;;;;;3.87;100.00;101512.53;684246;28;1069;-55
2021/10/13 00:03:19;;;;;;;8.00;5.03;;;;;;;3.92;100.00;101515.31;684037;28;1066;-56
2021/10/13 00:03:39;;;;;;;6.82;4.88;;;;;;;3.93;100.00;101514.47;683831;28;1045;-51
2021/10/13 00:04:00;;;;;;;6.70;4.63;;;;;;;3.94;100.00;101515.38;682332;28;4569;-51
2021/10/13 00:04:21;;;;;;;6.93;4.53;;;;;;;4.03;100.00;101514.00;683897;28;3888;-53
2021/10/13 00:04:41;;;;;;;7.25;4.80;;;;;;;4.02;99.91;101517.41;682806;28;926;-51
2021/10/13 00:05:03;;;;;;;7.73;4.80;;;;;;;3.99;100.00;101519.88;683142;28;1213;-54
2021/10/13 00:05:23;;;;;;;7.47;4.68;;;;;;;3.94;100.00;101517.97;682981;28;1105;-52
2021/10/13 00:05:44;;;;;;;8.13;5.03;;;;;;;3.91;100.00;101523.91;683668;28;1057;-52
2021/10/13 00:06:04;;;;;;;9.60;5.20;;;;;;;3.91;99.98;101524.75;683629;28;1120;-52
2021/10/13 00:06:25;;;;;;;7.32;5.10;;;;;;;3.94;100.00;101517.97;686182;28;1109;-52
2021/10/13 00:06:45;;;;;;;6.63;4.70;;;;;;;3.95;100.00;101522.31;686831;28;1089;-52
2021/10/13 00:07:05;;;;;;;6.55;4.63;;;;;;;3.89;100.00;101521.25;684478;28;5435;-52
2021/10/13 00:07:26;;;;;;;8.70;4.73;;;;;;;3.86;99.96;101523.75;685255;28;3744;-53
2021/10/13 00:07:46;;;;;;;8.80;4.80;;;;;;;3.82;99.84;101521.88;684906;28;1120;-54
2021/10/13 00:08:07;;;;;;;7.90;4.68;;;;;;;3.80;100.00;101515.75;685653;28;1498;-55
2021/10/13 00:08:27;;;;;;;9.68;5.13;;;;;;;3.81;99.90;101519.19;685806;28;1168;-54
2021/10/13 00:08:47;;;;;;;7.17;4.87;;;;;;;3.79;100.00;101516.56;684648;28;1387;-54
2021/10/13 00:09:08;;;;;;;7.43;4.87;;;;;;;3.79;100.00;101524.31;685781;28;1477;-56
2021/10/13 00:09:29;;;;;;;7.80;4.93;;;;;;;3.79;100.00;101520.84;685118;28;1116;-53
2021/10/13 00:09:49;;;;;;;8.50;4.93;;;;;;;3.79;100.00;101521.72;683362;28;4411;-51
2021/10/13 00:10:09;;;;;;;7.33;5.03;;;;;;;3.83;100.00;101525.31;683665;28;1346;-51
2021/10/13 00:10:30;;;;;;;7.97;4.95;;;;;;;3.86;100.00;101525.44;682379;28;3437;-54
2021/10/13 00:10:51;;;;;;;6.93;4.73;;;;;;;3.85;100.00;101524.56;683585;28;1408;-54
2021/10/13 00:11:12;;;;;;;6.35;4.57;;;;;;;3.85;100.00;101526.25;683252;28;1116;-54
2021/10/13 00:11:33;;;;;;;6.53;4.37;;;;;;;3.84;100.00;101529.69;684149;28;1259;-53
2021/10/13 00:11:54;;;;;;;7.03;4.70;;;;;;;3.84;100.00;101529.69;682182;28;1193;-51
2021/10/13 00:12:14;;;;;;;7.63;4.87;;;;;;;3.85;100.00;101531.41;683174;28;1191;-52
2021/10/13 00:12:35;;;;;;;7.68;4.70;;;;;;;3.90;100.00;101533.38;683685;28;1237;-52
2021/10/13 00:12:55;;;;;;;6.77;4.60;;;;;;;3.93;100.00;101532.56;682643;28;4339;-54
2021/10/13 00:13:16;;;;;;;6.60;4.57;;;;;;;3.95;100.00;101536.13;684045;28;1104;-55
2021/10/13 00:13:36;;;;;;;6.72;4.40;;;;;;;3.96;99.78;101537.88;683713;28;3939;-53
2021/10/13 00:13:57;;;;;;;6.73;4.80;;;;;;;3.95;99.75;101536.13;682900;28;3768;-56
2021/10/13 00:14:17;;;;;;;5.90;4.40;;;;;;;3.98;99.78;101527.59;683987;28;1460;-54
2021/10/13 00:14:37;;;;;;;5.77;4.40;;;;;;;4.00;99.97;101534.59;683010;28;1248;-54
2021/10/13 00:14:58;;;;;;;6.25;4.40;;;;;;;3.99;99.62;101532.81;683438;28;1073;-51
2021/10/13 00:15:18;;;;;;;6.90;4.30;;;;;;;3.97;99.52;101531.88;683022;28;1386;-53
2021/10/13 00:15:39;;;;;;;6.27;4.20;;;;;;;3.99;99.45;101527.63;685350;28;1073;-55
2021/10/13 00:15:59;;;;;;;7.53;4.70;;;;;;;3.99;99.69;101534.50;683356;28;4612;-52
2021/10/13 00:16:20;;;;;;;8.40;4.85;;;;;;;4.00;99.83;101534.59;684860;28;1104;-53
2021/10/13 00:16:40;;;;;;;7.17;4.60;;;;;;;3.99;99.53;101538.00;683890;28;2740;-52
2021/10/13 00:17:05;;;;;;;6.03;4.20;;;;;;;4.01;99.97;101530.28;684323;28;1440;-53
2021/10/13 00:17:25;;;;;;;6.14;4.30;;;;;;;3.97;99.18;101539.63;684858;28;1031;-54
2021/10/13 00:17:46;;;;;;;6.43;4.13;;;;;;;4.00;99.67;101533.69;684676;28;1592;-52
2021/10/13 00:18:06;;;;;;;5.87;4.27;;;;;;;4.00;100.00;101529.41;683527;28;1533;-52
2021/10/13 00:18:27;;;;;;;6.15;4.15;;;;;;;3.99;99.78;101538.00;680048;28;1922;-53
2021/10/13 00:18:47;;;;;;;6.50;4.33;;;;;;;3.97;99.07;101533.59;681357;28;1112;-51
2021/10/13 00:19:07;;;;;;;6.18;4.55;;;;;;;3.94;99.47;101536.94;681403;28;4564;-54
2021/10/13 00:19:28;;;;;;;6.30;4.60;;;;;;;3.90;99.31;101533.38;681265;28;1148;-50
2021/10/13 00:19:49;;;;;;;8.82;4.78;;;;;;;3.88;99.14;101536.72;680620;28;3949;-52
2021/10/13 00:20:09;;;;;;;8.05;4.43;;;;;;;3.88;99.21;101541.91;683469;28;1552;-52
2021/10/13 00:20:30;;;;;;;7.22;4.65;;;;;;;3.81;99.35;101535.63;684815;28;1546;-54
2021/10/13 00:20:50;;;;;;;7.20;4.67;;;;;;;3.77;98.74;101531.16;682406;28;903;-55
2021/10/13 00:21:11;;;;;;;7.07;4.72;;;;;;;3.78;99.43;101534.59;684468;28;1064;-52
2021/10/13 00:21:31;;;;;;;6.83;4.43;;;;;;;3.74;99.41;101537.09;684303;28;1215;-51
2021/10/13 00:21:54;;;;;;;7.00;4.53;;;;;;;3.71;100.00;101528.31;682182;28;4663;-55
2021/10/13 00:22:14;;;;;;;6.93;4.70;;;;;;;3.73;99.85;101529.28;683292;28;1247;-53
2021/10/13 00:22:35;;;;;;;7.00;4.67;;;;;;;3.75;99.97;101533.69;681919;28;2014;-53
2021/10/13 00:22:55;;;;;;;6.70;4.57;;;;;;;3.77;100.00;101532.84;678900;29;4096;-52
2021/10/13 00:23:16;;;;;;;8.83;4.37;;;;;;;3.69;99.96;101533.44;679209;29;1212;-51
2021/10/13 00:23:36;;;;;;;9.13;4.60;;;;;;;3.62;99.71;101533.16;678988;29;1222;-53
2021/10/13 00:23:56;;;;;;;7.77;4.60;;;;;;;3.55;100.00;101532.91;679245;28;1079;-52
2021/10/13 00:24:17;;;;;;;9.43;4.60;;;;;;;3.55;99.94;101534.63;681975;28;1160;-52
2021/10/13 00:24:37;;;;;;;9.43;4.63;;;;;;;3.53;100.00;101531.09;683809;28;1081;-52
2021/10/13 00:24:58;;;;;;;8.17;4.70;;;;;;;3.54;100.00;101532.88;683506;28;4552;-52
2021/10/13 00:25:18;;;;;;;6.47;4.63;;;;;;;3.55;100.00;101530.34;684947;28;1124;-65
2021/10/13 00:25:38;;;;;;;6.87;4.83;;;;;;;3.55;100.00;101534.63;684168;28;3761;-52
2021/10/13 00:25:59;;;;;;;6.70;4.90;;;;;;;3.58;100.00;101530.44;682839;28;4274;-51
2021/10/13 00:26:19;;;;;;;8.77;5.17;;;;;;;3.59;100.00;101531.34;684166;28;1311;-52
2021/10/13 00:26:40;;;;;;;9.35;5.00;;;;;;;3.57;100.00;101531.28;683312;28;1556;-54
2021/10/13 00:27:00;;;;;;;8.70;5.03;;;;;;;3.63;100.00;101532.31;684450;28;1117;-51
2021/10/13 00:27:21;;;;;;;7.53;4.40;;;;;;;3.71;100.00;101525.72;681770;28;1234;-56
2021/10/13 00:27:41;;;;;;;7.70;4.50;;;;;;;3.67;100.00;101529.03;683292;28;1034;-53
2021/10/13 00:28:01;;;;;;;7.72;4.75;;;;;;;3.65;100.00;101531.56;680241;28;4556;-53
2021/10/13 00:28:22;;;;;;;7.13;4.50;;;;;;;3.63;100.00;101533.22;681684;28;1089;-51
2021/10/13 00:28:42;;;;;;;7.15;4.82;;;;;;;3.68;100.00;101530.81;681098;28;3237;-52
2021/10/13 00:29:02;;;;;;;7.40;4.57;;;;;;;3.73;100.00;101529.28;679053;28;3716;-51
2021/10/13 00:29:23;;;;;;;7.60;4.47;;;;;;;3.69;99.80;101530.84;681275;28;1216;-52
2021/10/13 00:29:43;;;;;;;6.90;4.40;;;;;;;3.68;99.98;101528.22;681761;28;1632;-51
2021/10/13 00:30:04;;;;;;;6.83;4.57;;;;;;;3.65;100.00;101531.56;683810;28;1164;-53
2021/10/13 00:30:25;;;;;;;7.43;4.63;;;;;;;3.62;100.00;101521.13;684261;28;1109;-54
2021/10/13 00:30:45;;;;;;;7.90;4.57;;;;;;;3.62;100.00;101531.47;683549;28;1368;-53
2021/10/13 00:31:07;;;;;;;6.18;4.70;;;;;;;3.65;100.00;101538.44;685729;28;5213;-51
2021/10/13 00:31:28;;;;;;;6.25;4.53;;;;;;;3.66;99.65;101527.28;686848;28;1215;-51
2021/10/13 00:31:48;;;;;;;7.05;4.70;;;;;;;3.65;100.00;101531.56;684643;28;3653;-55
2021/10/13 00:32:09;;;;;;;6.55;4.60;;;;;;;3.61;99.99;101528.81;684689;28;5043;-51
2021/10/13 00:32:29;;;;;;;7.60;4.70;;;;;;;3.56;100.00;101536.41;684824;28;1470;-52
2021/10/13 00:32:49;;;;;;;7.25;4.68;;;;;;;3.49;100.00;101531.81;684517;28;1192;-53
2021/10/13 00:33:10;;;;;;;7.17;4.30;;;;;;;3.47;100.00;101534.34;684838;28;1165;-51
2021/10/13 00:33:30;;;;;;;6.63;4.70;;;;;;;3.45;100.00;101538.56;684908;28;1250;-54
2021/10/13 00:33:50;;;;;;;5.83;4.40;;;;;;;3.48;100.00;101527.47;684025;28;5523;-51
2021/10/13 00:34:11;;;;;;;6.72;4.30;;;;;;;3.55;100.00;101534.63;684556;28;1084;-53
2021/10/13 00:34:35;;;;;;;6.70;4.38;;;;;;;3.58;100.00;101534.75;684899;28;950;-52
2021/10/13 00:34:56;;;;;;;7.32;4.50;;;;;;;3.58;99.83;101529.56;684199;28;3809;-50
2021/10/13 00:35:16;;;;;;;6.05;4.30;;;;;;;3.57;100.00;101533.88;684225;28;4274;-52
2021/10/13 00:35:37;;;;;;;5.97;4.40;;;;;;;3.56;100.00;101536.41;684152;28;1300;-53
2021/10/13 00:35:57;;;;;;;6.47;4.37;;;;;;;3.59;100.00;101539.09;684417;28;1117;-56
2021/10/13 00:36:18;;;;;;;7.45;4.38;;;;;;;3.61;99.58;101539.16;684232;28;919;-54
2021/10/13 00:36:38;;;;;;;7.33;4.50;;;;;;;3.61;99.87;101540.03;683218;28;1289;-51
2021/10/13 00:36:59;;;;;;;6.68;4.82;;;;;;;3.60;100.00;101529.63;684343;28;4315;-50
2021/10/13 00:37:19;;;;;;;7.10;4.30;;;;;;;3.60;99.81;101538.28;684420;28;1080;-54
2021/10/13 00:37:41;;;;;;;6.67;4.30;;;;;;;3.61;99.81;101537.44;684451;28;1019;-53
2021/10/13 00:38:01;;;;;;;6.05;4.22;;;;;;;3.63;99.97;101535.81;683721;28;3324;-52
2021/10/13 00:38:21;;;;;;;6.32;4.43;;;;;;;3.65;99.88;101534.16;681730;28;3621;-50
2021/10/13 00:38:42;;;;;;;5.90;4.37;;;;;;;3.64;99.79;101535.00;684313;28;1930;-52
2021/10/13 00:39:02;;;;;;;6.40;4.60;;;;;;;3.59;99.69;101533.94;684085;28;3725;-54
2021/10/13 00:39:23;;;;;;;6.20;4.30;;;;;;;3.55;100.00;101539.81;684399;28;1453;-51
2021/10/13 00:39:43;;;;;;;6.00;4.10;;;;;;;3.50;99.46;101529.31;684388;28;929;-51
2021/10/13 00:40:05;;;;;;;6.37;4.27;;;;;;;3.49;99.88;101539.56;684514;28;4491;-52
2021/10/13 00:40:28;;;;;;;6.75;4.50;;;;;;;3.49;100.00;101540.47;683313;28;1252;-52
2021/10/13 00:40:48;;;;;;;6.35;4.32;;;;;;;3.54;99.78;101538.03;685122;28;1039;-54
2021/10/13 00:41:09;;;;;;;6.28;4.25;;;;;;;3.58;100.00;101539.91;685838;28;3222;-52
2021/10/13 00:41:29;;;;;;;6.97;4.40;;;;;;;3.65;100.00;101535.88;686095;28;3695;-52
2021/10/13 00:41:50;;;;;;;6.30;4.35;;;;;;;3.63;99.76;101542.66;685898;28;1432;-51
2021/10/13 00:42:10;;;;;;;7.50;4.40;;;;;;;3.58;99.48;101545.09;687299;28;1339;-51
2021/10/13 00:42:30;;;;;;;6.65;4.43;;;;;;;3.57;99.81;101548.50;686759;28;1072;-52
2021/10/13 00:42:51;;;;;;;6.90;4.50;;;;;;;3.60;100.00;101538.28;683345;28;4482;-56
2021/10/13 00:43:11;;;;;;;6.35;4.20;;;;;;;3.66;100.00;101541.09;683549;28;1192;-51
2021/10/13 00:43:32;;;;;;;5.87;4.10;;;;;;;3.70;100.00;101545.56;685397;28;1135;-54
2021/10/13 00:43:52;;;;;;;5.95;4.07;;;;;;;3.75;99.78;101541.44;684391;28;1035;-51
2021/10/13 00:44:14;;;;;;;6.20;3.90;;;;;;;3.85;99.86;101546.94;683838;28;3138;-51
2021/10/13 00:44:35;;;;;;;5.78;3.80;;;;;;;3.86;99.50;101543.53;683232;28;3983;-55
2021/10/13 00:44:55;;;;;;;5.97;4.10;;;;;;;3.82;99.20;101544.25;683730;28;1132;-52
2021/10/13 00:45:16;;;;;;;5.80;4.18;;;;;;;3.77;99.33;101541.50;684272;28;1160;-55
2021/10/13 00:45:36;;;;;;;6.27;4.30;;;;;;;3.73;99.39;101549.97;683804;28;1326;-55
2021/10/13 00:45:56;;;;;;;6.18;4.30;;;;;;;3.68;98.77;101539.47;683543;28;4457;-55
2021/10/13 00:46:17;;;;;;;6.47;4.40;;;;;;;3.66;98.91;101546.25;683730;28;1303;-56
2021/10/13 00:46:37;;;;;;;6.73;4.30;;;;;;;3.64;99.05;101549.59;684513;28;1159;-54
2021/10/13 00:47:00;;;;;;;6.85;4.40;;;;;;;3.61;99.63;101545.19;683139;28;1182;-52
2021/10/13 00:47:20;;;;;;;6.50;4.07;;;;;;;3.55;99.11;101543.25;682794;28;3404;-51
2021/10/13 00:47:41;;;;;;;6.20;4.60;;;;;;;3.55;99.48;101545.84;685974;28;3803;-53
2021/10/13 00:48:01;;;;;;;7.63;4.63;;;;;;;3.57;99.76;101548.50;687558;28;1289;-55
2021/10/13 00:48:21;;;;;;;6.70;4.50;;;;;;;3.57;100.00;101541.63;687360;28;941;-51
2021/10/13 00:48:42;;;;;;;6.43;4.47;;;;;;;3.59;99.58;101541.69;684739;28;979;-55
2021/10/13 00:49:02;;;;;;;7.78;4.60;;;;;;;3.58;100.00;101545.97;681890;28;4478;-52
2021/10/13 00:49:25;;;;;;;7.17;4.33;;;;;;;3.60;99.68;101543.47;681803;28;1035;-54
2021/10/13 00:49:45;;;;;;;7.93;4.70;;;;;;;3.55;100.00;101551.03;682108;28;965;-51
2021/10/13 00:50:11;;;;;;;6.35;4.90;;;;;;;3.52;99.88;101544.88;682773;28;1078;-53
2021/10/13 00:50:32;;;;;;;8.50;4.88;;;;;;;3.52;100.00;101544.88;682487;28;3303;-56
2021/10/13 00:50:53;;;;;;;7.33;4.60;;;;;;;3.56;100.00;101547.63;683724;28;4536;-53
2021/10/13 00:51:14;;;;;;;7.50;4.45;;;;;;;3.60;100.00;101538.28;685422;28;1416;-56
2021/10/13 00:51:34;;;;;;;6.75;4.18;;;;;;;3.61;100.00;101541.75;683712;28;1259;-52
2021/10/13 00:51:55;;;;;;;6.60;4.10;;;;;;;3.61;100.00;101540.03;683718;28;4572;-54
2021/10/13 00:52:16;;;;;;;5.83;3.90;;;;;;;3.66;100.00;101546.25;684013;28;1106;-52
2021/10/13 00:52:42;;;;;;;5.45;4.05;;;;;;;3.74;100.00;101536.22;684574;28;1164;-54
2021/10/13 00:53:03;;;;;;;5.70;3.97;;;;;;;3.82;100.00;101539.06;683783;28;1049;-52
2021/10/13 00:53:23;;;;;;;5.53;3.90;;;;;;;3.85;99.18;101546.94;684115;28;1053;-51
2021/10/13 00:53:44;;;;;;;5.93;3.93;;;;;;;3.87;99.52;101540.13;683393;28;3381;-52
2021/10/13 00:54:05;;;;;;;5.70;3.78;;;;;;;3.89;98.85;101536.78;683290;28;1314;-55
2021/10/13 00:54:25;;;;;;;5.35;3.80;;;;;;;3.91;98.91;101536.84;684665;28;1140;-52
2021/10/13 00:54:45;;;;;;;6.07;3.97;;;;;;;3.92;98.65;101544.66;682915;28;1260;-52
2021/10/13 00:55:08;;;;;;;5.85;4.00;;;;;;;3.91;98.48;101532.53;683813;28;4435;-56
2021/10/13 00:55:29;;;;;;;5.20;3.55;;;;;;;3.97;98.97;101531.00;683959;28;1066;-53
2021/10/13 00:55:52;;;;;;;6.65;3.88;;;;;;;3.93;98.59;101535.16;682375;28;1098;-53
2021/10/13 00:56:13;;;;;;;5.85;3.83;;;;;;;3.88;98.16;101539.31;684017;28;962;-53
2021/10/13 00:56:33;;;;;;;6.13;3.73;;;;;;;3.83;97.78;101535.66;684011;28;820;-52
2021/10/13 00:56:53;;;;;;;6.30;3.97;;;;;;;3.81;98.68;101532.13;682837;28;3395;-52
2021/10/13 00:57:14;;;;;;;5.90;4.00;;;;;;;3.75;98.07;101530.19;684956;28;1233;-54
2021/10/13 00:57:34;;;;;;;6.47;4.00;;;;;;;3.69;98.61;101533.44;684649;28;1217;-52
2021/10/13 00:57:54;;;;;;;6.37;3.90;;;;;;;3.66;98.80;101532.47;684064;28;4391;-52
2021/10/13 00:58:15;;;;;;;6.03;3.87;;;;;;;3.63;99.05;101533.22;683881;28;1144;-54
2021/10/13 00:58:35;;;;;;;6.07;4.10;;;;;;;3.62;99.58;101535.75;683347;28;1996;-52
2021/10/13 00:58:56;;;;;;;6.40;4.10;;;;;;;3.58;100.00;101527.84;684224;28;1117;-53
2021/10/13 00:59:16;;;;;;;6.85;4.25;;;;;;;3.52;99.83;101534.53;685595;28;1252;-51
2021/10/13 00:59:36;;;;;;;9.50;4.27;;;;;;;3.47;99.65;101536.91;685357;28;1073;-56
2021/10/13 00:59:57;;;;;;;7.53;4.00;;;;;;;3.46;99.37;101534.28;684725;28;3950;-53
2021/10/13 01:00:20;;;;;;;6.73;4.30;;;;;;;3.41;99.51;101537.56;684745;28;1217;-54
2021/10/13 01:00:43;;;;;;;8.20;4.35;;;;;;;3.38;99.69;101534.88;684424;28;1216;-51
2021/10/13 01:01:16;;;;;;;6.78;4.28;;;;;;;3.37;100.00;101535.69;686224;28;4567;-55
2021/10/13 01:01:57;;;;;;;7.38;4.32;;;;;;;3.32;100.00;101532.03;683375;28;1168;-55
2021/10/13 01:02:26;;;;;;;7.80;4.40;;;;;;;3.27;100.00;101533.59;684552;28;917;-53
2021/10/13 01:03:16;;;;;;;6.68;4.20;;;;;;;3.19;100.00;101540.16;683018;28;1033;-53
2021/10/13 01:04:23;;;;;;;5.65;4.22;;;;;;;3.25;100.00;101540.38;683371;28;1406;-52
2021/10/13 01:04:51;;;;;;;6.15;4.50;;;;;;;3.21;100.00;101548.81;675757;29;5086;-54
2021/10/13 01:05:42;;;;;;;6.55;4.60;;;;;;;3.17;100.00;101544.34;675856;29;853;-55
2021/10/13 01:06:20;;;;;;;5.72;4.22;;;;;;;3.21;100.00;101544.56;671175;29;3305;-51
2021/10/13 01:07:06;;;;;;;6.00;4.50;;;;;;;3.16;100.00;101540.03;668958;29;1207;-51
2021/10/13 01:07:29;;;;;;;6.25;4.15;;;;;;;3.16;100.00;101534.88;673619;28;1181;-53
2021/10/13 01:07:59;;;;;;;5.75;3.88;;;;;;;3.18;100.00;101534.09;683761;28;1015;-51
2021/10/13 01:08:52;;;;;;;7.70;4.30;;;;;;;3.20;100.00;101531.59;684249;28;1085;-52
2021/10/13 01:09:50;;;;;;;6.63;4.40;;;;;;;3.23;100.00;101532.56;684378;28;3440;-52
2021/10/13 01:10:14;;;;;;;5.65;4.20;;;;;;;3.30;100.00;101536.28;684108;28;4844;-54
2021/10/13 01:11:05;;;;;;;5.93;4.15;;;;;;;3.39;100.00;101534.06;682810;28;1326;-54
2021/10/13 01:11:52;;;;;;;5.47;3.75;;;;;;;3.41;100.00;101529.81;683223;28;1326;-53
2021/10/13 01:12:38;;;;;;;6.50;3.97;;;;;;;3.30;100.00;101528.53;678359;29;3516;-55
2021/10/13 01:13:05;;;;;;;5.90;4.20;;;;;;;3.28;100.00;101530.19;678658;28;4622;-53
2021/10/13 01:13:45;;;;;;;5.53;4.03;;;;;;;3.32;100.00;101531.16;683150;28;946;-54
2021/10/13 01:14:21;;;;;;;5.32;3.72;;;;;;;3.41;100.00;101526.34;683303;28;1152;-56
2021/10/13 01:15:13;;;;;;;5.57;3.72;;;;;;;3.45;100.00;101529.94;684552;28;1030;-53
2021/10/13 01:15:59;;;;;;;7.15;4.07;;;;;;;3.39;99.76;101528.00;684079;28;3697;-52
2021/10/13 01:16:31;;;;;;;6.75;3.80;;;;;;;3.40;99.94;101525.47;682929;28;5217;-54
2021/10/13 01:17:13;;;;;;;6.63;3.95;;;;;;;3.38;99.40;101531.41;683876;28;1193;-53
2021/10/13 01:17:40;;;;;;;5.50;3.90;;;;;;;3.31;99.41;101529.38;683629;28;1084;-54
2021/10/13 01:18:13;;;;;;;5.90;3.83;;;;;;;3.23;98.98;101521.38;683860;28;1050;-53
2021/10/13 01:19:07;;;;;;;6.07;3.72;;;;;;;3.19;99.36;101528.09;683065;28;3575;-53
2021/10/13 01:19:47;;;;;;;6.78;4.10;;;;;;;3.08;100.00;101531.09;683903;28;5014;-53
2021/10/13 01:20:26;;;;;;;6.00;3.97;;;;;;;2.99;100.00;101532.50;684521;28;1107;-53
2021/10/13 01:21:11;;;;;;;5.97;4.35;;;;;;;2.96;100.00;101534.94;683515;28;934;-52
2021/10/13 01:22:05;;;;;;;6.45;4.45;;;;;;;2.95;100.00;101534.88;683978;28;3135;-52
2021/10/13 01:22:59;;;;;;;7.90;4.70;;;;;;;2.95;100.00;101534.88;683967;28;5183;-52
2021/10/13 01:24:03;;;;;;;5.90;4.25;;;;;;;2.95;100.00;101532.28;683920;28;1279;-51
2021/10/13 01:24:40;;;;;;;5.80;4.25;;;;;;;3.13;100.00;101539.88;683811;28;1077;-54
2021/10/13 01:25:34;;;;;;;6.85;4.35;;;;;;;3.17;100.00;101536.59;682468;28;4497;-52
2021/10/13 01:26:05;;;;;;;5.95;4.25;;;;;;;3.16;100.00;101537.44;685054;28;1194;-54
2021/10/13 01:26:40;;;;;;;6.25;4.20;;;;;;;3.17;100.00;101536.59;683062;28;1097;-54
2021/10/13 01:27:30;;;;;;;6.03;4.38;;;;;;;3.25;100.00;101532.63;683782;28;1125;-52
2021/10/13 01:27:56;;;;;;;6.40;3.97;;;;;;;3.25;100.00;101532.63;683085;28;4388;-53
2021/10/13 01:28:24;;;;;;;6.15;3.88;;;;;;;3.32;99.69;101526.00;684627;28;1342;-52
2021/10/13 01:28:47;;;;;;;5.75;3.78;;;;;;;3.31;99.25;101532.88;684295;28;1323;-51
2021/10/13 01:29:12;;;;;;;5.30;3.70;;;;;;;3.31;99.14;101535.47;683450;28;1140;-54
2021/10/13 01:29:38;;;;;;;5.90;3.85;;;;;;;3.28;98.49;101532.78;682838;28;1164;-51
2021/10/13 01:30:01;;;;;;;5.90;3.83;;;;;;;3.25;98.63;101535.22;684100;28;1138;-52
2021/10/13 01:30:23;;;;;;;5.82;3.80;;;;;;;3.23;98.74;101535.16;684317;28;1331;-53
2021/10/13 01:30:58;;;;;;;5.35;3.45;;;;;;;3.24;98.96;101530.88;683033;28;3287;-53
2021/10/13 01:31:26;;;;;;;5.75;3.53;;;;;;;3.27;98.76;101538.75;683570;28;5714;-54
2021/10/13 01:31:53;;;;;;;6.35;4.00;;;;;;;3.25;99.21;101535.22;685070;28;1449;-54
2021/10/13 01:32:22;;;;;;;5.55;3.92;;;;;;;3.27;99.15;101533.59;685437;28;1187;-53
2021/10/13 01:32:47;;;;;;;6.30;4.07;;;;;;;3.27;99.48;101536.16;682116;28;1579;-52
2021/10/13 01:33:35;;;;;;;6.18;4.20;;;;;;;3.23;99.30;101536.88;681853;28;1157;-55
2021/10/13 01:34:00;;;;;;;6.47;4.00;;;;;;;3.23;99.43;101539.44;681388;28;4494;-51
2021/10/13 01:34:28;;;;;;;7.30;4.00;;;;;;;3.19;98.95;101538.44;682501;28;1121;-56
2021/10/13 01:34:51;;;;;;;6.65;4.00;;;;;;;3.17;99.48;101539.19;684680;28;1207;-52
2021/10/13 01:35:16;;;;;;;6.20;4.20;;;;;;;3.19;99.39;101534.97;683366;28;1073;-55
2021/10/13 01:35:44;;;;;;;6.28;4.38;;;;;;;3.21;100.00;101543.66;683784;28;1080;-53
2021/10/13 01:36:11;;;;;;;5.36;3.80;;;;;;;3.23;100.00;101539.44;683077;28;1151;-55
2021/10/13 01:36:37;;;;;;;6.88;4.10;;;;;;;3.23;100.00;101542.03;684020;28;1109;-53
2021/10/13 01:37:03;;;;;;;6.05;4.15;;;;;;;3.24;99.53;101534.34;683491;28;4567;-53
2021/10/13 01:37:45;;;;;;;6.20;4.03;;;;;;;3.27;100.00;101543.91;682532;28;3672;-51
2021/10/13 01:38:12;;;;;;;6.03;3.78;;;;;;;3.32;99.82;101536.34;683223;28;1236;-53
2021/10/13 01:38:40;;;;;;;6.45;4.10;;;;;;;3.38;100.00;101540.03;683064;28;2037;-51
2021/10/13 01:39:02;;;;;;;5.65;3.70;;;;;;;3.53;99.31;101542.34;683609;28;1297;-53
2021/10/13 01:39:24;;;;;;;5.22;3.80;;;;;;;3.55;99.22;101544.97;683504;28;1202;-52
2021/10/13 01:39:49;;;;;;;5.18;3.70;;;;;;;3.53;98.83;101541.44;683110;28;1012;-53
2021/10/13 01:40:14;;;;;;;6.45;3.97;;;;;;;3.44;97.43;101543.69;684121;28;4756;-55
2021/10/13 01:40:36;;;;;;;6.60;4.07;;;;;;;3.41;98.54;101545.31;683853;28;1377;-55
2021/10/13 01:41:00;;;;;;;5.82;3.92;;;;;;;3.43;98.22;101540.22;683258;28;1064;-56
2021/10/13 01:41:21;;;;;;;5.28;3.70;;;;;;;3.53;99.13;101544.94;684404;28;995;-51
2021/10/13 01:41:45;;;;;;;5.25;3.63;;;;;;;3.58;98.21;101542.50;683957;28;1113;-52
2021/10/13 01:42:07;;;;;;;5.60;3.72;;;;;;;3.64;98.60;101544.44;683975;28;1132;-55
2021/10/13 01:42:30;;;;;;;5.50;3.70;;;;;;;3.65;98.49;101546.22;684080;28;1104;-55
2021/10/13 01:42:52;;;;;;;6.20;3.60;;;;;;;3.66;98.09;101542.81;683459;28;4371;-55
2021/10/13 01:43:15;;;;;;;5.18;3.85;;;;;;;3.64;97.73;101541.84;683385;28;3004;-55
2021/10/13 01:43:40;;;;;;;6.05;3.75;;;;;;;3.57;97.51;101540.72;682584;28;3852;-52
2021/10/13 01:44:02;;;;;;;5.63;3.60;;;;;;;3.55;97.87;101544.97;684805;28;1093;-56
2021/10/13 01:44:25;;;;;;;6.03;3.60;;;;;;;3.52;97.55;101539.69;684442;28;1351;-54
2021/10/13 01:44:48;;;;;;;5.95;3.55;;;;;;;3.50;97.02;101539.66;684557;28;1631;-52
2021/10/13 01:45:09;;;;;;;5.53;3.70;;;;;;;3.52;97.70;101543.16;686449;28;1049;-54
2021/10/13 01:45:32;;;;;;;5.05;3.60;;;;;;;3.55;97.61;101543.25;683778;28;1054;-56
2021/10/13 01:45:54;;;;;;;6.03;3.65;;;;;;;3.52;97.92;101544.88;683457;28;4402;-55
2021/10/13 01:46:16;;;;;;;5.40;3.40;;;;;;;3.46;97.90;101539.44;684275;28;3716;-55
2021/10/13 01:46:38;;;;;;;5.97;3.90;;;;;;;3.44;97.46;101543.69;683001;28;2101;-54
2021/10/13 01:47:00;;;;;;;6.85;3.67;;;;;;;3.35;97.71;101542.50;683878;28;1263;-52
2021/10/13 01:47:21;;;;;;;6.60;3.70;;;;;;;3.32;97.92;101542.38;683423;28;1409;-54
2021/10/13 01:47:45;;;;;;;6.25;3.80;;;;;;;3.34;98.39;101545.91;683286;28;1118;-51
2021/10/13 01:48:06;;;;;;;6.00;3.50;;;;;;;3.36;98.80;101540.81;680585;28;1093;-55
2021/10/13 01:48:32;;;;;;;6.05;3.53;;;;;;;3.37;98.41;101540.00;681352;28;1161;-53
2021/10/13 01:48:54;;;;;;;5.20;3.80;;;;;;;3.33;98.15;101538.09;680568;28;4490;-52
2021/10/13 01:49:15;;;;;;;5.36;3.68;;;;;;;3.32;98.13;101542.38;681664;28;1130;-55
2021/10/13 01:49:36;;;;;;;5.07;3.50;;;;;;;3.31;98.47;101535.47;680317;28;4111;-53
2021/10/13 01:49:59;;;;;;;5.13;3.70;;;;;;;3.31;98.01;101542.31;681440;28;1230;-55
2021/10/13 01:50:23;;;;;;;5.38;3.45;;;;;;;3.32;98.29;101542.38;680835;28;1236;-55
2021/10/13 01:50:46;;;;;;;5.15;3.70;;;;;;;3.30;98.62;101544.03;682271;28;1013;-52
2021/10/13 01:51:07;;;;;;;5.53;3.60;;;;;;;3.26;98.85;101538.69;683461;28;1104;-54
2021/10/13 01:51:30;;;;;;;6.07;3.65;;;;;;;3.17;98.65;101545.25;684064;28;1027;-54
2021/10/13 01:51:52;;;;;;;6.13;3.70;;;;;;;3.11;98.41;101545.00;682724;28;4390;-54
2021/10/13 01:52:14;;;;;;;6.30;3.70;;;;;;;3.06;98.63;101547.41;686309;28;2078;-54
2021/10/13 01:52:36;;;;;;;5.70;3.60;;;;;;;3.01;98.24;101550.63;686878;28;3884;-54
2021/10/13 01:52:58;;;;;;;6.22;3.60;;;;;;;3.00;99.19;101549.72;682985;28;1247;-54
2021/10/13 01:53:22;;;;;;;6.57;3.53;;;;;;;2.97;99.03;101544.44;681392;28;1217;-53
2021/10/13 01:53:44;;;;;;;5.55;3.63;;;;;;;2.98;99.73;101547.94;681264;28;1114;-55
2021/10/13 01:54:06;;;;;;;6.78;3.83;;;;;;;2.94;99.82;101549.50;681898;28;1007;-51
2021/10/13 01:54:27;;;;;;;6.25;3.70;;;;;;;2.97;100.00;101543.56;680322;29;1055;-52
2021/10/13 01:54:48;;;;;;;4.90;3.40;;;;;;;2.97;100.00;101547.03;680987;28;998;-55
2021/10/13 01:55:10;;;;;;;5.77;3.80;;;;;;;2.99;100.00;101550.56;682224;28;4555;-52
2021/10/13 01:55:30;;;;;;;5.57;3.63;;;;;;;3.02;100.00;101545.53;684326;28;3216;-52
2021/10/13 01:55:53;;;;;;;5.63;3.78;;;;;;;3.08;100.00;101555.22;682663;28;3599;-52
2021/10/13 01:56:15;;;;;;;5.25;3.78;;;;;;;3.10;100.00;101552.69;684641;28;1173;-51
2021/10/13 01:56:38;;;;;;;5.13;3.38;;;;;;;3.10;99.74;101540.66;682997;28;1293;-55
2021/10/13 01:57:00;;;;;;;5.50;3.47;;;;;;;3.12;99.66;101544.19;683756;28;1270;-53
2021/10/13 01:57:23;;;;;;;4.93;3.50;;;;;;;3.14;99.43;101544.25;683884;28;1722;-56